Time;durP1;ratioP1;P1;durP2;ratioP2;P2;SDS_P1;SDS_P2;PMS_P1;PMS_P2;Temp;Humidity;BMP_temperature;BMP_pressure;BME280_temperature;BME280_humidity;BME280_pressure;Samples;Min_cycle;Max_cycle;Signal;HPM_P1;HPM_P2
2023/07/14 00:00:32;;;;;;;4.07;2.47;;;;;;;19.35;nan;99713.94;5031163;28;20231;-77
2023/07/14 00:02:59;;;;;;;3.47;2.23;;;;;;;19.38;nan;99705.63;5015120;28;20519;-77
2023/07/14 00:05:31;;;;;;;3.28;2.80;;;;;;;19.45;nan;99704.06;5032998;28;20871;-77
2023/07/14 00:07:57;;;;;;;2.90;1.90;;;;;;;19.53;nan;99705.97;5033951;28;20729;-77
2023/07/14 00:10:35;;;;;;;3.27;2.97;;;;;;;19.61;nan;99708.69;5036295;28;20460;-77
2023/07/14 00:13:03;;;;;;;4.30;2.10;;;;;;;19.69;nan;99699.13;5035832;28;20575;-77
2023/07/14 00:15:33;;;;;;;5.17;2.40;;;;;;;19.73;nan;99695.16;5036694;28;20464;-77
2023/07/14 00:18:14;;;;;;;3.93;2.20;;;;;;;19.76;nan;99697.50;5035090;28;20561;-77
2023/07/14 00:20:40;;;;;;;3.87;1.83;;;;;;;19.76;nan;99697.50;5036545;28;20535;-77
2023/07/14 00:23:11;;;;;;;6.23;2.70;;;;;;;19.76;nan;99694.84;5035330;28;20567;-77
2023/07/14 00:25:38;;;;;;;3.80;2.50;;;;;;;19.72;nan;99694.34;5036103;28;20223;-77
2023/07/14 00:28:11;;;;;;;5.30;2.53;;;;;;;19.64;nan;99687.06;5036737;28;20823;-78
2023/07/14 00:30:37;;;;;;;6.63;2.60;;;;;;;19.57;nan;99693.16;5035347;28;20515;-78
2023/07/14 00:33:13;;;;;;;2.17;1.97;;;;;;;19.53;nan;99695.31;5035630;28;20457;-77
2023/07/14 00:35:40;;;;;;;8.20;2.67;;;;;;;19.41;nan;99691.19;5015409;28;20225;-77
2023/07/14 00:38:05;;;;;;;3.30;2.23;;;;;;;19.27;nan;99699.72;5036816;28;21053;-77
2023/07/14 00:40:43;;;;;;;2.73;2.37;;;;;;;19.08;nan;99690.03;5035707;28;20477;-78
2023/07/14 00:43:17;;;;;;;13.47;2.60;;;;;;;18.93;nan;99689.69;5016338;28;20239;-78
2023/07/14 00:45:44;;;;;;;4.13;2.77;;;;;;;18.82;nan;99695.22;5034705;28;20483;-77
2023/07/14 00:48:14;;;;;;;2.37;2.17;;;;;;;18.74;nan;99696.81;5017167;28;20859;-77
2023/07/14 00:50:48;;;;;;;5.63;3.10;;;;;;;18.71;nan;99691.75;5019747;28;20449;-77
2023/07/14 00:53:19;;;;;;;3.83;2.80;;;;;;;18.65;nan;99683.53;5035165;28;20465;-77
2023/07/14 00:55:48;;;;;;;2.70;2.13;;;;;;;18.58;nan;99691.25;5034246;28;21043;-77
2023/07/14 00:58:22;;;;;;;2.40;2.23;;;;;;;18.50;nan;99689.34;5034859;28;20484;-77
2023/07/14 01:01:02;;;;;;;3.83;3.20;;;;;;;18.39;nan;99684.19;5036388;28;20952;-78
2023/07/14 01:03:28;;;;;;;2.07;1.97;;;;;;;18.29;nan;99684.22;5035770;28;20512;-78
2023/07/14 01:05:55;;;;;;;3.73;2.90;;;;;;;18.20;nan;99681.59;5036835;28;20460;-79
2023/07/14 01:08:21;;;;;;;3.50;2.30;;;;;;;18.11;nan;99675.31;5035105;28;21154;-78
2023/07/14 01:10:48;;;;;;;2.33;2.13;;;;;;;18.02;nan;99678.84;5034092;28;20484;-77
2023/07/14 01:13:14;;;;;;;2.60;2.40;;;;;;;17.91;nan;99675.38;5035390;28;20859;-77
2023/07/14 01:15:40;;;;;;;3.57;2.80;;;;;;;17.84;nan;99671.59;5034751;28;20486;-77
2023/07/14 01:18:08;;;;;;;2.90;2.33;;;;;;;17.79;nan;99670.34;5034606;28;20214;-77
2023/07/14 01:20:37;;;;;;;2.33;2.07;;;;;;;17.78;nan;99673.97;5034526;28;20485;-77
2023/07/14 01:23:05;;;;;;;6.50;2.30;;;;;;;17.79;nan;99676.50;5012517;28;20507;-78
2023/07/14 01:25:34;;;;;;;4.20;3.40;;;;;;;17.81;nan;99671.06;5016286;28;20723;-77
2023/07/14 01:28:05;;;;;;;3.67;2.37;;;;;;;17.83;nan;99672.59;5017170;28;20996;-77
2023/07/14 01:30:32;;;;;;;3.90;2.37;;;;;;;17.84;nan;99673.44;5035449;28;20538;-77
2023/07/14 01:32:58;;;;;;;3.40;2.23;;;;;;;17.81;nan;99674.53;5033016;28;20445;-77
2023/07/14 01:35:28;;;;;;;3.13;2.30;;;;;;;17.80;nan;99675.53;5035925;28;20468;-77
2023/07/14 01:37:55;;;;;;;3.80;3.30;;;;;;;17.79;nan;99671.19;5030989;28;20228;-76
2023/07/14 01:40:21;;;;;;;2.97;2.63;;;;;;;17.79;nan;99676.50;5035132;28;20479;-77
2023/07/14 01:43:17;;;;;;;5.77;2.57;;;;;;;17.79;nan;99673.84;5013047;28;21696;-77
2023/07/14 01:46:06;;;;;;;3.80;2.77;;;;;;;17.75;nan;99680.41;5020832;28;20670;-77
2023/07/14 01:49:06;;;;;;;4.13;2.77;;;;;;;17.74;nan;99680.53;5017913;28;20618;-77
2023/07/14 01:51:35;;;;;;;3.90;2.73;;;;;;;17.77;nan;99681.09;4984664;28;21045;-77
2023/07/14 01:54:45;;;;;;;2.87;2.30;;;;;;;17.85;nan;99672.47;5012988;28;20484;-77
2023/07/14 01:57:15;;;;;;;3.23;2.93;;;;;;;17.92;nan;99662.91;4991811;28;20497;-77
2023/07/14 01:59:47;;;;;;;8.30;2.97;;;;;;;17.99;nan;99653.41;5008643;28;20463;-78
2023/07/14 02:02:22;;;;;;;3.17;2.87;;;;;;;18.05;nan;99659.97;5032014;28;20504;-77
2023/07/14 02:04:49;;;;;;;2.63;2.43;;;;;;;18.08;nan;99660.50;5032798;28;20655;-77
2023/07/14 02:07:15;;;;;;;2.90;2.50;;;;;;;18.08;nan;99651.69;5015910;28;20613;-77
2023/07/14 02:09:42;;;;;;;3.10;2.40;;;;;;;17.99;nan;99658.72;5016775;28;20468;-77
2023/07/14 02:12:16;;;;;;;4.13;3.17;;;;;;;17.89;nan;99664.03;5015552;28;20475;-77
2023/07/14 02:14:48;;;;;;;3.33;2.90;;;;;;;17.82;nan;99665.63;5015932;28;20481;-77
2023/07/14 02:17:30;;;;;;;2.93;2.70;;;;;;;17.74;nan;99660.16;5035674;28;20461;-77
2023/07/14 02:19:57;;;;;;;3.03;2.57;;;;;;;17.67;nan;99657.19;5011526;28;20479;-77
2023/07/14 02:22:23;;;;;;;3.53;2.70;;;;;;;17.65;nan;99656.50;5013980;28;21015;-77
2023/07/14 02:24:51;;;;;;;3.70;2.60;;;;;;;17.68;nan;99650.91;5013652;28;20506;-77
2023/07/14 02:27:16;;;;;;;3.27;2.97;;;;;;;17.76;nan;99652.84;5027393;28;20477;-77
2023/07/14 02:29:42;;;;;;;6.40;2.30;;;;;;;17.80;nan;99656.09;5031060;28;20804;-77
2023/07/14 02:32:07;;;;;;;6.63;3.00;;;;;;;17.84;nan;99652.16;5016121;28;20201;-77
2023/07/14 02:34:39;;;;;;;3.47;2.57;;;;;;;17.90;nan;99657.75;5030952;28;20287;-77
2023/07/14 02:37:42;;;;;;;3.00;2.10;;;;;;;17.98;nan;99649.03;5031952;28;20217;-77
2023/07/14 02:40:23;;;;;;;4.07;2.40;;;;;;;18.00;nan;99643.59;5033736;28;20698;-77
2023/07/14 02:42:51;;;;;;;4.23;2.40;;;;;;;17.97;nan;99643.91;5033974;28;20483;-77
2023/07/14 02:45:19;;;;;;;3.43;3.13;;;;;;;17.93;nan;99640.69;5033365;28;20226;-77
2023/07/14 02:47:48;;;;;;;3.20;2.50;;;;;;;17.91;nan;99632.84;5029345;28;20583;-77
2023/07/14 02:50:13;;;;;;;5.97;2.70;;;;;;;17.91;nan;99630.19;5033188;28;21204;-77
2023/07/14 02:52:38;;;;;;;4.33;3.57;;;;;;;17.95;nan;99635.22;5015910;28;20549;-77
2023/07/14 02:55:07;;;;;;;4.40;2.87;;;;;;;17.95;nan;99627.25;5031990;28;20249;-78
2023/07/14 02:57:34;;;;;;;3.63;2.60;;;;;;;17.94;nan;99622.94;5030760;28;20223;-78
2023/07/14 02:59:59;;;;;;;2.90;2.70;;;;;;;17.94;nan;99622.94;5029849;28;20568;-77
2023/07/14 03:02:25;;;;;;;4.70;3.07;;;;;;;17.93;nan;99614.13;5012514;28;20573;-77
2023/07/14 03:04:51;;;;;;;3.57;2.87;;;;;;;17.92;nan;99610.59;5016498;28;20273;-77
2023/07/14 03:07:16;;;;;;;3.33;2.50;;;;;;;17.92;nan;99615.91;5033336;28;20459;-77
2023/07/14 03:09:42;;;;;;;2.60;2.30;;;;;;;17.86;nan;99619.16;5017236;28;20687;-77
2023/07/14 03:12:09;;;;;;;2.87;2.40;;;;;;;17.78;nan;99612.88;5034052;28;20222;-77
2023/07/14 03:14:34;;;;;;;4.40;2.77;;;;;;;17.64;nan;99609.69;5022194;28;20232;-77
2023/07/14 03:17:00;;;;;;;3.23;2.00;;;;;;;17.45;nan;99615.03;5031908;28;20445;-77
2023/07/14 03:19:25;;;;;;;4.80;2.73;;;;;;;17.28;nan;99599.78;5013215;28;20733;-78
2023/07/14 03:21:51;;;;;;;6.83;2.50;;;;;;;17.15;nan;99600.09;5032855;28;20267;-78
2023/07/14 03:24:16;;;;;;;3.73;2.60;;;;;;;17.07;nan;99594.66;5014618;28;20230;-78
2023/07/14 03:26:42;;;;;;;3.77;2.80;;;;;;;16.98;nan;99601.59;5014244;28;20677;-78
2023/07/14 03:29:07;;;;;;;2.90;2.70;;;;;;;16.93;nan;99603.84;5033265;28;20225;-78
2023/07/14 03:31:33;;;;;;;4.60;3.90;;;;;;;16.89;nan;99600.63;5032348;28;20698;-77
2023/07/14 03:33:58;;;;;;;4.03;2.53;;;;;;;16.89;nan;99607.75;5032536;28;20245;-78
2023/07/14 03:36:25;;;;;;;3.80;2.40;;;;;;;16.90;nan;99602.28;5031832;28;20454;-78
2023/07/14 03:39:20;;;;;;;4.33;3.07;;;;;;;16.90;nan;99607.59;5017044;28;20215;-78
2023/07/14 03:41:46;;;;;;;3.03;2.67;;;;;;;16.89;nan;99605.09;5032711;28;20644;-77
2023/07/14 03:44:11;;;;;;;4.20;3.03;;;;;;;16.85;nan;99601.03;5033304;28;20946;-77
2023/07/14 03:46:36;;;;;;;4.37;2.93;;;;;;;16.79;nan;99603.25;5013649;28;20720;-77
2023/07/14 03:49:02;;;;;;;2.87;2.67;;;;;;;16.75;nan;99606.31;5014846;28;20228;-78
2023/07/14 03:51:30;;;;;;;4.13;3.00;;;;;;;16.70;nan;99619.13;5030153;28;20210;-78
2023/07/14 03:53:55;;;;;;;5.97;2.70;;;;;;;16.66;nan;99615.06;5011692;28;20220;-77
2023/07/14 03:56:21;;;;;;;4.33;3.33;;;;;;;16.63;nan;99615.34;5019940;28;20479;-77
2023/07/14 03:58:46;;;;;;;2.73;2.53;;;;;;;16.63;nan;99612.69;5014731;28;20249;-78
2023/07/14 04:01:13;;;;;;;3.80;2.83;;;;;;;16.63;nan;99602.09;5031719;28;20228;-78
2023/07/14 04:03:39;;;;;;;3.70;2.90;;;;;;;16.67;nan;99600.84;5032052;28;20231;-77
2023/07/14 04:06:05;;;;;;;8.90;2.70;;;;;;;16.71;nan;99595.13;5033184;28;20934;-78
2023/07/14 04:08:39;;;;;;;4.30;2.90;;;;;;;16.78;nan;99601.59;5032327;28;20951;-78
2023/07/14 04:11:05;;;;;;;7.00;2.90;;;;;;;16.85;nan;99593.06;5013717;28;20521;-77
2023/07/14 04:13:32;;;;;;;4.93;3.30;;;;;;;16.90;nan;99594.34;5015825;28;20453;-78
2023/07/14 04:15:58;;;;;;;3.07;2.77;;;;;;;16.96;nan;99598.28;5033010;28;21551;-78
2023/07/14 04:18:24;;;;;;;2.53;2.33;;;;;;;17.02;nan;99577.31;5031743;28;20479;-78
2023/07/14 04:20:49;;;;;;;3.50;2.50;;;;;;;17.10;nan;99578.44;5028941;28;20214;-78
2023/07/14 04:23:17;;;;;;;3.47;2.80;;;;;;;17.16;nan;99578.69;5032340;28;20433;-78
2023/07/14 04:25:43;;;;;;;2.87;2.57;;;;;;;17.22;nan;99577.28;5032545;28;20712;-78
2023/07/14 04:28:09;;;;;;;4.30;2.90;;;;;;;17.22;nan;99570.16;5030836;28;20641;-77
2023/07/14 04:30:34;;;;;;;3.90;2.43;;;;;;;17.23;nan;99571.03;5031314;28;20473;-77
2023/07/14 04:32:59;;;;;;;4.07;3.33;;;;;;;17.22;nan;99567.50;5030989;28;20224;-77
2023/07/14 04:35:25;;;;;;;4.97;2.53;;;;;;;17.21;nan;99575.63;5031486;28;20627;-77
2023/07/14 04:37:51;;;;;;;2.90;2.70;;;;;;;17.21;nan;99570.31;5031108;28;20248;-78
2023/07/14 04:40:16;;;;;;;5.20;3.50;;;;;;;17.22;nan;99569.34;5032628;28;20653;-77
2023/07/14 04:42:42;;;;;;;3.13;2.83;;;;;;;17.25;nan;99577.00;5031873;28;20708;-78
2023/07/14 04:45:08;;;;;;;3.77;3.07;;;;;;;17.24;nan;99585.97;5031750;28;20271;-77
2023/07/14 04:47:34;;;;;;;3.70;3.40;;;;;;;17.22;nan;99572.81;5031836;28;20244;-77
2023/07/14 04:50:00;;;;;;;3.80;3.50;;;;;;;17.21;nan;99575.63;5034260;28;20922;-78
2023/07/14 04:52:25;;;;;;;6.60;4.17;;;;;;;17.26;nan;99578.72;5036063;28;20283;-78
2023/07/14 04:54:51;;;;;;;4.73;4.00;;;;;;;17.27;nan;99580.38;5035999;28;21163;-78
2023/07/14 04:57:17;;;;;;;2.93;2.73;;;;;;;17.31;nan;99575.59;5034545;28;20954;-78
2023/07/14 04:59:43;;;;;;;5.33;3.37;;;;;;;17.36;nan;99574.22;5036506;28;20220;-78
2023/07/14 05:02:08;;;;;;;3.70;3.23;;;;;;;17.51;nan;99587.06;5035680;28;20487;-78
2023/07/14 05:04:40;;;;;;;5.00;2.50;;;;;;;17.77;nan;99582.81;5034441;28;20430;-78
2023/07/14 05:07:06;;;;;;;4.47;3.43;;;;;;;18.15;nan;99586.34;5033087;28;20561;-79
2023/07/14 05:09:34;;;;;;;3.30;2.60;;;;;;;18.49;nan;99583.91;5035580;28;20576;-79
2023/07/14 05:12:00;;;;;;;3.43;2.67;;;;;;;18.81;nan;99579.97;5036766;28;20611;-80
2023/07/14 05:14:27;;;;;;;3.80;2.83;;;;;;;19.21;nan;99579.50;5035997;28;20532;-79
2023/07/14 05:16:53;;;;;;;3.93;3.37;;;;;;;19.81;nan;99573.44;5037003;28;20474;-79
2023/07/14 05:19:18;;;;;;;4.13;3.47;;;;;;;20.25;nan;99575.16;5035251;28;20584;-79
2023/07/14 05:21:44;;;;;;;5.63;3.57;;;;;;;20.60;nan;99574.13;5035682;28;20345;-79
2023/07/14 05:24:09;;;;;;;4.57;3.80;;;;;;;20.88;nan;99571.22;5034129;28;20241;-79
2023/07/14 05:26:35;;;;;;;3.97;2.87;;;;;;;21.13;nan;99564.88;5036977;28;20219;-79
2023/07/14 05:29:02;;;;;;;2.30;2.10;;;;;;;21.15;nan;99570.06;5034702;28;20243;-80
2023/07/14 05:31:28;;;;;;;2.70;2.50;;;;;;;21.04;nan;99570.38;5032261;28;20531;-79
2023/07/14 05:33:53;;;;;;;3.23;2.40;;;;;;;20.94;nan;99574.03;5066960;23;20482;-75
2023/07/14 05:36:19;;;;;;;3.67;3.38;;;;;;;20.89;nan;99570.19;4991040;28;20441;-74
2023/07/14 05:38:44;;;;;;;2.57;2.40;;;;;;;20.99;nan;99561.03;4991796;28;20229;-75
2023/07/14 05:41:10;;;;;;;3.00;2.80;;;;;;;21.46;nan;99556.03;4997534;28;20305;-75
2023/07/14 05:43:35;;;;;;;3.40;2.70;;;;;;;21.99;nan;99551.91;4997206;28;20231;-74
2023/07/14 05:46:00;;;;;;;5.53;4.30;;;;;;;22.34;nan;99539.91;4980305;28;20231;-75
2023/07/14 05:48:26;;;;;;;3.33;2.87;;;;;;;22.50;nan;99545.19;4981436;28;20237;-75
2023/07/14 05:50:52;;;;;;;4.00;3.60;;;;;;;22.76;nan;99544.00;4981710;28;20218;-74
2023/07/14 05:53:18;;;;;;;5.60;3.40;;;;;;;23.05;nan;99545.16;4979272;28;20592;-75
2023/07/14 05:55:44;;;;;;;2.77;2.50;;;;;;;23.46;nan;99544.81;4983275;28;20243;-75
2023/07/14 05:58:09;;;;;;;6.20;2.13;;;;;;;23.91;nan;99549.22;4981429;28;20253;-75
2023/07/14 06:00:38;;;;;;;3.03;2.33;;;;;;;24.19;nan;99543.19;4980380;28;20856;-76
2023/07/14 06:03:06;;;;;;;7.87;2.70;;;;;;;24.37;nan;99538.25;4980120;28;20236;-75
2023/07/14 06:05:33;;;;;;;4.30;2.87;;;;;;;24.67;nan;99525.59;4982421;28;20880;-76
2023/07/14 06:07:59;;;;;;;4.97;2.83;;;;;;;25.00;nan;99510.81;4981437;28;20474;-76
2023/07/14 06:10:24;;;;;;;3.47;2.80;;;;;;;25.19;nan;99515.53;4981931;28;20501;-76
2023/07/14 06:12:56;;;;;;;2.77;2.30;;;;;;;25.28;nan;99509.03;4992842;28;20244;-76
2023/07/14 06:15:22;;;;;;;4.23;2.40;;;;;;;25.47;nan;99510.19;4988141;28;20230;-76
2023/07/14 06:17:48;;;;;;;3.83;2.47;;;;;;;25.49;nan;99507.28;4985934;28;20467;-76
2023/07/14 06:20:13;;;;;;;3.20;2.30;;;;;;;25.58;nan;99503.44;4979972;28;20466;-77
2023/07/14 06:22:39;;;;;;;3.90;2.63;;;;;;;25.88;nan;99498.66;4982168;28;20235;-76
2023/07/14 06:25:05;;;;;;;4.17;2.23;;;;;;;26.19;nan;99503.56;4981922;28;20230;-76
2023/07/14 06:27:33;;;;;;;3.50;2.53;;;;;;;26.51;nan;99494.94;4983352;28;20540;-76
2023/07/14 06:29:59;;;;;;;2.53;2.33;;;;;;;26.69;nan;99490.66;4981929;28;20785;-76
2023/07/14 06:32:25;;;;;;;2.90;2.10;;;;;;;26.83;nan;99496.88;4984371;28;20824;-77
2023/07/14 06:34:50;;;;;;;2.83;2.53;;;;;;;26.86;nan;99491.06;4982886;28;21114;-77
2023/07/14 06:37:16;;;;;;;5.23;2.40;;;;;;;26.80;nan;99494.59;4986212;28;20236;-76
2023/07/14 06:39:41;;;;;;;2.90;2.60;;;;;;;26.98;nan;99496.69;4985509;28;20291;-77
2023/07/14 06:42:07;;;;;;;3.00;2.30;;;;;;;27.21;nan;99487.38;4980019;28;20898;-77
2023/07/14 06:44:33;;;;;;;2.93;1.80;;;;;;;27.15;nan;99481.75;4985506;28;20307;-76
2023/07/14 06:46:58;;;;;;;2.80;2.30;;;;;;;27.01;nan;99487.38;4970260;28;20269;-77
2023/07/14 06:49:24;;;;;;;4.57;2.00;;;;;;;26.99;nan;99479.47;4984527;28;20265;-77
2023/07/14 06:51:49;;;;;;;3.17;2.17;;;;;;;27.16;nan;99487.97;4988321;28;20243;-76
2023/07/14 06:54:15;;;;;;;3.00;2.53;;;;;;;27.10;nan;99480.72;4985554;28;20222;-77
2023/07/14 06:56:41;;;;;;;3.47;2.40;;;;;;;27.03;nan;99483.44;4986298;28;20315;-77
2023/07/14 06:59:06;;;;;;;3.50;2.70;;;;;;;26.93;nan;99488.41;4985815;28;20544;-77
2023/07/14 07:01:32;;;;;;;4.83;2.87;;;;;;;26.74;nan;99486.53;4983859;28;20227;-76
2023/07/14 07:03:58;;;;;;;6.50;2.60;;;;;;;26.70;nan;99486.91;4984275;28;21199;-76
2023/07/14 07:06:24;;;;;;;5.28;2.88;;;;;;;26.78;nan;99485.88;4983366;28;20468;-76
2023/07/14 07:08:50;;;;;;;5.77;2.17;;;;;;;26.83;nan;99487.97;4982036;28;20220;-77
2023/07/14 07:11:15;;;;;;;6.17;3.30;;;;;;;26.79;nan;99482.19;4985130;28;20913;-77
2023/07/14 07:13:41;;;;;;;5.57;2.80;;;;;;;26.67;nan;99473.03;4983542;28;20566;-77
2023/07/14 07:16:07;;;;;;;3.53;2.87;;;;;;;26.33;nan;99474.81;4975659;28;20603;-77
2023/07/14 07:18:32;;;;;;;2.93;2.50;;;;;;;26.02;nan;99486.09;4978716;28;20211;-77
2023/07/14 07:20:58;;;;;;;3.23;2.40;;;;;;;25.93;nan;99473.84;4977478;28;20206;-77
2023/07/14 07:23:24;;;;;;;2.70;2.50;;;;;;;25.97;nan;99472.41;4977975;28;20230;-78
2023/07/14 07:25:53;;;;;;;5.70;2.70;;;;;;;26.10;nan;99477.84;4977350;28;20225;-79
2023/07/14 07:28:19;;;;;;;3.00;2.50;;;;;;;26.44;nan;99470.69;4975566;28;20476;-78
2023/07/14 07:30:46;;;;;;;2.90;2.10;;;;;;;26.71;nan;99471.59;4968795;28;20898;-78
2023/07/14 07:33:12;;;;;;;3.53;3.23;;;;;;;26.72;nan;99458.94;4977176;28;20446;-76
2023/07/14 07:35:39;;;;;;;2.97;2.20;;;;;;;26.75;nan;99469.31;4980254;28;20482;-77
2023/07/14 07:38:04;;;;;;;3.37;2.60;;;;;;;26.82;nan;99457.50;4980996;28;20474;-75
2023/07/14 07:40:31;;;;;;;3.00;2.47;;;;;;;26.99;nan;99452.53;4980175;28;20587;-77
2023/07/14 07:42:57;;;;;;;2.90;2.40;;;;;;;27.16;nan;99450.22;4978335;28;20269;-76
2023/07/14 07:45:22;;;;;;;3.10;2.77;;;;;;;27.19;nan;99449.81;4979513;28;20925;-76
2023/07/14 07:47:49;;;;;;;2.10;2.00;;;;;;;27.21;nan;99444.25;4984526;28;20215;-77
2023/07/14 07:50:14;;;;;;;2.90;2.40;;;;;;;27.36;nan;99445.66;4981804;28;20228;-76
2023/07/14 07:52:41;;;;;;;3.17;2.27;;;;;;;27.48;nan;99445.84;4977450;28;20952;-77
2023/07/14 07:55:06;;;;;;;3.47;2.47;;;;;;;27.70;nan;99443.69;4977696;28;20222;-78
2023/07/14 07:57:32;;;;;;;6.17;3.30;;;;;;;27.58;nan;99446.22;4978162;28;20472;-77
2023/07/14 07:59:58;;;;;;;6.30;2.80;;;;;;;27.51;nan;99448.09;4980161;28;20210;-76
2023/07/14 08:02:23;;;;;;;3.67;2.83;;;;;;;27.54;nan;99442.31;4983832;28;20631;-76
2023/07/14 08:04:49;;;;;;;4.10;2.03;;;;;;;27.61;nan;99433.38;4984976;28;20231;-77
2023/07/14 08:07:16;;;;;;;3.03;2.50;;;;;;;27.57;nan;99441.88;4989852;28;20489;-76
2023/07/14 08:09:41;;;;;;;4.90;2.33;;;;;;;27.64;nan;99439.16;4988785;28;20911;-77
2023/07/14 08:12:07;;;;;;;3.07;2.77;;;;;;;27.75;nan;99440.34;4986386;28;20487;-78
2023/07/14 08:14:49;;;;;;;3.40;2.50;;;;;;;27.75;nan;99441.19;4988413;28;20247;-78
2023/07/14 08:17:14;;;;;;;4.67;2.33;;;;;;;27.60;nan;99454.13;4989374;28;20452;-78
2023/07/14 08:19:40;;;;;;;3.00;2.70;;;;;;;27.65;nan;99456.16;4988343;28;20654;-78
2023/07/14 08:22:08;;;;;;;2.93;2.00;;;;;;;27.74;nan;99450.34;4991851;28;20198;-77
2023/07/14 08:24:33;;;;;;;3.80;2.70;;;;;;;27.80;nan;99443.28;4994251;28;20305;-77
2023/07/14 08:26:58;;;;;;;7.83;3.20;;;;;;;27.78;nan;99434.53;4992955;28;20571;-79
2023/07/14 08:29:30;;;;;;;2.60;2.23;;;;;;;27.71;nan;99436.44;4988633;28;20646;-79
2023/07/14 08:31:55;;;;;;;8.47;2.70;;;;;;;27.57;nan;99439.19;4988702;28;20216;-79
2023/07/14 08:34:22;;;;;;;3.50;2.87;;;;;;;27.47;nan;99437.97;4993944;28;20490;-78
2023/07/14 08:36:48;;;;;;;3.90;2.40;;;;;;;27.36;nan;99442.16;4994384;28;20884;-77
2023/07/14 08:39:34;;;;;;;4.40;2.87;;;;;;;27.37;nan;99443.78;4990267;28;20472;-75
2023/07/14 08:42:38;;;;;;;4.00;2.90;;;;;;;27.39;nan;99441.72;4993640;28;20332;-77
2023/07/14 08:45:14;;;;;;;3.13;2.70;;;;;;;27.44;nan;99441.91;4986358;28;20484;-78
2023/07/14 08:48:01;;;;;;;5.33;2.60;;;;;;;27.53;nan;99450.59;4993264;28;20508;-76
2023/07/14 08:50:29;;;;;;;5.80;2.40;;;;;;;27.51;nan;99439.19;4993239;28;20579;-76
2023/07/14 08:53:03;;;;;;;3.87;2.83;;;;;;;27.54;nan;99441.47;4999332;28;20562;-78
2023/07/14 08:55:33;;;;;;;4.00;2.90;;;;;;;27.65;nan;99445.38;4999504;28;20496;-78
2023/07/14 08:58:15;;;;;;;2.30;2.10;;;;;;;27.74;nan;99438.72;4998728;28;20537;-78
2023/07/14 09:00:50;;;;;;;5.10;2.80;;;;;;;27.69;nan;99438.53;4996755;28;20557;-77
2023/07/14 09:03:43;;;;;;;2.90;2.70;;;;;;;27.64;nan;99439.16;4994333;28;20485;-77
2023/07/14 09:06:33;;;;;;;2.90;2.60;;;;;;;27.66;nan;99441.66;4993412;28;20454;-77
2023/07/14 09:08:59;;;;;;;3.67;2.90;;;;;;;27.64;nan;99433.75;4995819;28;20561;-78
2023/07/14 09:12:04;;;;;;;5.37;2.60;;;;;;;27.64;nan;99427.53;4976109;28;20925;-78
2023/07/14 09:14:43;;;;;;;6.93;3.10;;;;;;;27.70;nan;99432.06;4990153;28;20770;-78
2023/07/14 09:17:26;;;;;;;4.70;2.93;;;;;;;27.71;nan;99420.25;4994299;28;20470;-78
2023/07/14 09:20:23;;;;;;;3.37;2.13;;;;;;;27.80;nan;99417.13;4993026;28;21107;-78
2023/07/14 09:23:15;;;;;;;4.20;2.50;;;;;;;28.01;nan;99415.97;4992006;28;20480;-78
2023/07/14 09:26:19;;;;;;;6.10;3.17;;;;;;;27.98;nan;99404.78;4987989;28;20508;-78
2023/07/14 09:28:48;;;;;;;3.93;2.53;;;;;;;28.10;nan;99403.06;4989373;28;20451;-77
2023/07/14 09:31:31;;;;;;;3.07;2.80;;;;;;;28.09;nan;99395.19;4986231;28;20904;-78
2023/07/14 09:34:02;;;;;;;9.50;3.40;;;;;;;28.11;nan;99396.63;4987693;28;20469;-79
2023/07/14 09:36:28;;;;;;;4.20;2.67;;;;;;;28.04;nan;99395.00;4988175;28;20825;-78
2023/07/14 09:39:04;;;;;;;3.47;2.00;;;;;;;28.12;nan;99394.75;4990319;28;20483;-79
2023/07/14 09:41:31;;;;;;;3.90;2.70;;;;;;;28.23;nan;99394.88;4985658;28;21187;-79
2023/07/14 09:43:58;;;;;;;6.07;2.80;;;;;;;28.23;nan;99394.03;4990350;28;21524;-79
2023/07/14 09:46:25;;;;;;;2.47;2.27;;;;;;;28.23;nan;99389.47;4987688;28;20523;-79
2023/07/14 09:48:55;;;;;;;2.63;2.43;;;;;;;28.44;nan;99377.50;4986403;28;20532;-79
2023/07/14 09:51:25;;;;;;;2.83;2.60;;;;;;;28.83;nan;99377.38;4987619;28;20849;-79
2023/07/14 09:54:09;;;;;;;3.20;2.70;;;;;;;28.83;nan;99377.38;4985412;28;21011;-79
2023/07/14 09:56:42;;;;;;;2.50;2.30;;;;;;;28.74;nan;99373.31;4985457;28;20615;-79
2023/07/14 09:59:27;;;;;;;2.77;2.57;;;;;;;28.78;nan;99377.22;4986437;28;20514;-78
2023/07/14 10:02:02;;;;;;;3.00;2.37;;;;;;;28.86;nan;99372.34;4986162;28;20741;-80
2023/07/14 10:04:30;;;;;;;3.10;2.60;;;;;;;28.94;nan;99367.72;4983945;28;20497;-80
2023/07/14 10:07:24;;;;;;;5.93;2.43;;;;;;;29.10;nan;99365.28;4984849;28;20873;-79
2023/07/14 10:09:58;;;;;;;4.00;2.60;;;;;;;29.15;nan;99356.50;4983906;28;20464;-79
2023/07/14 10:12:24;;;;;;;5.83;2.90;;;;;;;29.29;nan;99349.88;4986528;28;20563;-79
2023/07/14 10:14:50;;;;;;;2.30;1.97;;;;;;;29.48;nan;99347.19;4987471;28;20632;-79
2023/07/14 10:17:25;;;;;;;2.73;2.37;;;;;;;29.60;nan;99345.38;4981020;28;20839;-79
2023/07/14 10:19:51;;;;;;;3.00;2.70;;;;;;;29.87;nan;99336.94;4983659;28;20210;-79
2023/07/14 10:22:24;;;;;;;4.93;2.73;;;;;;;30.11;nan;99344.06;4984584;28;20800;-79
2023/07/14 10:24:58;;;;;;;2.97;2.07;;;;;;;29.83;nan;99344.66;4983387;28;20520;-79
2023/07/14 10:27:27;;;;;;;3.00;2.70;;;;;;;29.58;nan;99339.34;4983050;28;20474;-80
2023/07/14 10:30:07;;;;;;;4.60;2.67;;;;;;;29.53;nan;99339.19;4984329;28;20492;-79
2023/07/14 10:32:41;;;;;;;5.90;2.80;;;;;;;29.67;nan;99337.19;4981722;28;20513;-80
2023/07/14 10:35:21;;;;;;;4.23;1.90;;;;;;;29.93;nan;99323.28;4982706;28;20494;-79
2023/07/14 10:37:53;;;;;;;4.97;2.57;;;;;;;30.12;nan;99334.03;4984763;28;20478;-79
2023/07/14 10:40:23;;;;;;;2.90;1.97;;;;;;;30.21;nan;99329.94;4987157;28;20465;-78
2023/07/14 10:43:02;;;;;;;3.57;2.70;;;;;;;30.26;nan;99331.97;4986825;28;20560;-80
2023/07/14 10:45:28;;;;;;;4.47;2.33;;;;;;;30.12;nan;99323.22;4985927;28;20481;-79
2023/07/14 10:47:59;;;;;;;4.70;1.97;;;;;;;30.01;nan;99318.59;4969271;28;20469;-78
2023/07/14 10:50:35;;;;;;;2.47;1.80;;;;;;;30.09;nan;99320.97;4983639;28;20979;-78
2023/07/14 10:53:24;;;;;;;2.60;2.30;;;;;;;30.30;nan;99327.72;4983757;28;20571;-78
2023/07/14 10:55:52;;;;;;;2.63;2.40;;;;;;;30.49;nan;99307.63;4983989;28;20487;-79
2023/07/14 10:58:42;;;;;;;4.97;2.43;;;;;;;30.48;nan;99311.38;4963618;28;20472;-76
2023/07/14 11:01:20;;;;;;;3.40;3.10;;;;;;;30.40;nan;99311.72;4979602;28;20584;-79
2023/07/14 11:03:55;;;;;;;3.83;2.30;;;;;;;30.40;nan;99301.72;4978479;28;20569;-78
2023/07/14 11:06:28;;;;;;;3.53;1.90;;;;;;;30.43;nan;99297.69;4981093;28;20470;-79
2023/07/14 11:08:55;;;;;;;2.70;1.90;;;;;;;30.54;nan;99294.19;4982296;28;21139;-79
2023/07/14 11:11:37;;;;;;;3.53;2.50;;;;;;;30.43;nan;99293.13;4983754;28;21000;-79
2023/07/14 11:14:18;;;;;;;1.90;1.80;;;;;;;30.33;nan;99284.75;4982038;28;21235;-79
2023/07/14 11:17:06;;;;;;;4.20;2.80;;;;;;;30.27;nan;99282.16;4983386;28;20477;-79
2023/07/14 11:19:35;;;;;;;2.30;2.10;;;;;;;30.24;nan;99278.00;4983249;28;20565;-78
2023/07/14 11:22:12;;;;;;;3.90;2.83;;;;;;;30.21;nan;99279.28;4960925;28;20673;-79
2023/07/14 11:24:53;;;;;;;2.30;2.10;;;;;;;30.09;nan;99273.03;4983984;28;20481;-77
2023/07/14 11:27:33;;;;;;;2.60;1.73;;;;;;;29.98;nan;99265.72;4983091;28;20473;-80
2023/07/14 11:30:12;;;;;;;3.77;2.03;;;;;;;30.08;nan;99271.38;4985882;28;20483;-78
2023/07/14 11:32:58;;;;;;;2.63;2.10;;;;;;;30.12;nan;99259.03;4986321;28;20472;-78
2023/07/14 11:35:34;;;;;;;2.20;2.00;;;;;;;30.15;nan;99258.53;5032419;23;20499;-77
2023/07/14 11:38:37;;;;;;;5.87;2.17;;;;;;;30.08;nan;99254.28;5010532;28;20567;-77
2023/07/14 11:41:03;;;;;;;2.53;2.33;;;;;;;30.03;nan;99246.88;5021227;28;20467;-78
2023/07/14 11:43:30;;;;;;;2.63;2.27;;;;;;;29.98;nan;99246.75;5025918;28;21174;-77
2023/07/14 11:46:02;;;;;;;6.50;1.93;;;;;;;30.02;nan;99249.81;5017264;28;20229;-78
2023/07/14 11:48:36;;;;;;;3.30;1.73;;;;;;;30.07;nan;99248.06;5007587;28;20900;-78
2023/07/14 11:51:07;;;;;;;3.27;2.43;;;;;;;29.97;nan;99248.66;5009571;28;20503;-78
2023/07/14 11:53:34;;;;;;;4.50;2.33;;;;;;;29.97;nan;99248.66;5008861;28;20469;-78
2023/07/14 11:56:38;;;;;;;1.90;1.80;;;;;;;29.90;nan;99241.69;5012986;28;20512;-78
2023/07/14 11:59:19;;;;;;;4.40;2.17;;;;;;;29.90;nan;99244.38;5005061;28;20551;-77
2023/07/14 12:01:51;;;;;;;2.80;2.20;;;;;;;30.02;nan;99241.69;5012860;28;20486;-78
2023/07/14 12:04:20;;;;;;;2.63;1.90;;;;;;;30.19;nan;99229.09;5007245;28;20482;-78
2023/07/14 12:06:48;;;;;;;3.72;2.20;;;;;;;30.25;nan;99232.81;5008918;28;20509;-77